sensor_id;sensor_type;location;lat;lon;timestamp;temperature;humidity
59975;DHT22;62136;-35.664;-63.766;2023-08-17T00:00:03;23.00;42.80
59975;DHT22;62136;-35.664;-63.766;2023-08-17T00:02:34;23.20;42.40
59975;DHT22;62136;-35.664;-63.766;2023-08-17T00:05:01;23.60;42.00
59975;DHT22;62136;-35.664;-63.766;2023-08-17T00:07:28;23.90;41.40
59975;DHT22;62136;-35.664;-63.766;2023-08-17T00:09:55;23.90;41.10
59975;DHT22;62136;-35.664;-63.766;2023-08-17T00:12:23;23.90;41.40
59975;DHT22;62136;-35.664;-63.766;2023-08-17T00:14:50;23.80;41.90
59975;DHT22;62136;-35.664;-63.766;2023-08-17T00:17:17;23.60;41.50
59975;DHT22;62136;-35.664;-63.766;2023-08-17T00:19:44;23.50;41.50
59975;DHT22;62136;-35.664;-63.766;2023-08-17T00:22:12;23.40;41.80
59975;DHT22;62136;-35.664;-63.766;2023-08-17T00:24:39;23.20;42.00
59975;DHT22;62136;-35.664;-63.766;2023-08-17T00:27:08;23.10;42.10
59975;DHT22;62136;-35.664;-63.766;2023-08-17T00:29:35;22.90;42.30
59975;DHT22;62136;-35.664;-63.766;2023-08-17T00:32:03;22.90;42.30
59975;DHT22;62136;-35.664;-63.766;2023-08-17T00:34:30;23.10;42.10
59975;DHT22;62136;-35.664;-63.766;2023-08-17T00:36:57;23.40;41.60
59975;DHT22;62136;-35.664;-63.766;2023-08-17T00:39:24;23.80;40.90
59975;DHT22;62136;-35.664;-63.766;2023-08-17T00:41:52;23.90;40.50
59975;DHT22;62136;-35.664;-63.766;2023-08-17T00:44:19;23.90;40.40
59975;DHT22;62136;-35.664;-63.766;2023-08-17T00:46:46;23.80;40.70
59975;DHT22;62136;-35.664;-63.766;2023-08-17T00:49:13;23.70;40.60
59975;DHT22;62136;-35.664;-63.766;2023-08-17T00:51:40;23.60;40.80
59975;DHT22;62136;-35.664;-63.766;2023-08-17T00:54:07;23.50;40.90
59975;DHT22;62136;-35.664;-63.766;2023-08-17T00:56:34;23.30;41.00
59975;DHT22;62136;-35.664;-63.766;2023-08-17T00:59:02;23.20;41.20
59975;DHT22;62136;-35.664;-63.766;2023-08-17T01:01:30;23.00;41.40
59975;DHT22;62136;-35.664;-63.766;2023-08-17T01:03:57;22.90;41.70
59975;DHT22;62136;-35.664;-63.766;2023-08-17T01:06:24;22.80;41.80
59975;DHT22;62136;-35.664;-63.766;2023-08-17T01:08:51;23.00;41.60
59975;DHT22;62136;-35.664;-63.766;2023-08-17T01:14:10;23.90;40.20
59975;DHT22;62136;-35.664;-63.766;2023-08-17T01:16:53;23.90;40.00
59975;DHT22;62136;-35.664;-63.766;2023-08-17T01:19:27;23.80;40.00
59975;DHT22;62136;-35.664;-63.766;2023-08-17T01:22:00;23.70;40.10
59975;DHT22;62136;-35.664;-63.766;2023-08-17T01:24:30;23.60;40.30
59975;DHT22;62136;-35.664;-63.766;2023-08-17T01:26:57;23.40;40.50
59975;DHT22;62136;-35.664;-63.766;2023-08-17T01:29:24;23.30;40.50
59975;DHT22;62136;-35.664;-63.766;2023-08-17T01:32:15;23.10;41.10
59975;DHT22;62136;-35.664;-63.766;2023-08-17T01:34:50;23.00;40.90
59975;DHT22;62136;-35.664;-63.766;2023-08-17T01:37:22;22.80;41.10
59975;DHT22;62136;-35.664;-63.766;2023-08-17T01:39:56;22.80;41.20
59975;DHT22;62136;-35.664;-63.766;2023-08-17T01:42:25;23.00;41.00
59975;DHT22;62136;-35.664;-63.766;2023-08-17T01:44:52;23.40;40.60
59975;DHT22;62136;-35.664;-63.766;2023-08-17T01:47:22;23.70;39.90
59975;DHT22;62136;-35.664;-63.766;2023-08-17T01:49:49;23.80;39.70
59975;DHT22;62136;-35.664;-63.766;2023-08-17T01:52:16;23.80;39.60
59975;DHT22;62136;-35.664;-63.766;2023-08-17T01:54:43;23.70;39.60
59975;DHT22;62136;-35.664;-63.766;2023-08-17T01:57:10;23.60;39.80
59975;DHT22;62136;-35.664;-63.766;2023-08-17T01:59:38;23.40;40.00
59975;DHT22;62136;-35.664;-63.766;2023-08-17T02:02:07;23.30;40.30
59975;DHT22;62136;-35.664;-63.766;2023-08-17T02:04:37;23.10;40.40
59975;DHT22;62136;-35.664;-63.766;2023-08-17T02:07:04;23.00;40.50
59975;DHT22;62136;-35.664;-63.766;2023-08-17T02:09:31;22.80;40.80
59975;DHT22;62136;-35.664;-63.766;2023-08-17T02:11:58;22.70;40.90
59975;DHT22;62136;-35.664;-63.766;2023-08-17T02:14:25;22.80;41.00
59975;DHT22;62136;-35.664;-63.766;2023-08-17T02:16:53;23.10;40.80
59975;DHT22;62136;-35.664;-63.766;2023-08-17T02:19:20;23.40;40.20
59975;DHT22;62136;-35.664;-63.766;2023-08-17T02:21:47;23.60;39.80
59975;DHT22;62136;-35.664;-63.766;2023-08-17T02:24:14;23.70;39.60
59975;DHT22;62136;-35.664;-63.766;2023-08-17T02:26:44;23.60;39.60
59975;DHT22;62136;-35.664;-63.766;2023-08-17T02:29:16;23.50;40.00
59975;DHT22;62136;-35.664;-63.766;2023-08-17T02:31:43;23.30;39.90
59975;DHT22;62136;-35.664;-63.766;2023-08-17T02:34:11;23.20;40.40
59975;DHT22;62136;-35.664;-63.766;2023-08-17T02:36:37;23.10;40.40
59975;DHT22;62136;-35.664;-63.766;2023-08-17T02:39:05;22.90;40.80
59975;DHT22;62136;-35.664;-63.766;2023-08-17T02:41:32;22.80;40.80
59975;DHT22;62136;-35.664;-63.766;2023-08-17T02:44:10;22.70;41.20
59975;DHT22;62136;-35.664;-63.766;2023-08-17T02:46:37;22.70;41.20
59975;DHT22;62136;-35.664;-63.766;2023-08-17T02:49:04;23.00;40.90
59975;DHT22;62136;-35.664;-63.766;2023-08-17T02:51:31;23.40;40.40
59975;DHT22;62136;-35.664;-63.766;2023-08-17T02:54:01;23.70;39.90
59975;DHT22;62136;-35.664;-63.766;2023-08-17T02:56:28;23.70;39.60
59975;DHT22;62136;-35.664;-63.766;2023-08-17T03:01:21;23.50;39.80
59975;DHT22;62136;-35.664;-63.766;2023-08-17T03:03:48;23.40;40.10
59975;DHT22;62136;-35.664;-63.766;2023-08-17T03:06:15;23.30;40.60
59975;DHT22;62136;-35.664;-63.766;2023-08-17T03:08:42;23.10;40.50
59975;DHT22;62136;-35.664;-63.766;2023-08-17T03:11:09;23.00;40.80
59975;DHT22;62136;-35.664;-63.766;2023-08-17T03:13:39;22.80;41.00
59975;DHT22;62136;-35.664;-63.766;2023-08-17T03:16:06;22.60;41.20
59975;DHT22;62136;-35.664;-63.766;2023-08-17T03:18:36;22.60;41.70
59975;DHT22;62136;-35.664;-63.766;2023-08-17T03:21:03;22.80;41.50
59975;DHT22;62136;-35.664;-63.766;2023-08-17T03:23:30;23.10;41.10
59975;DHT22;62136;-35.664;-63.766;2023-08-17T03:25:57;23.50;40.40
59975;DHT22;62136;-35.664;-63.766;2023-08-17T03:28:24;23.60;40.20
59975;DHT22;62136;-35.664;-63.766;2023-08-17T03:30:56;23.60;40.10
59975;DHT22;62136;-35.664;-63.766;2023-08-17T03:33:23;23.50;40.20
59975;DHT22;62136;-35.664;-63.766;2023-08-17T03:35:52;23.40;40.40
59975;DHT22;62136;-35.664;-63.766;2023-08-17T03:38:19;23.30;40.70
59975;DHT22;62136;-35.664;-63.766;2023-08-17T03:40:47;23.10;40.90
59975;DHT22;62136;-35.664;-63.766;2023-08-17T03:43:14;22.90;41.20
59975;DHT22;62136;-35.664;-63.766;2023-08-17T03:45:42;22.80;41.40
59975;DHT22;62136;-35.664;-63.766;2023-08-17T03:48:12;22.60;41.70
59975;DHT22;62136;-35.664;-63.766;2023-08-17T03:50:39;22.60;42.00
59975;DHT22;62136;-35.664;-63.766;2023-08-17T03:53:09;22.70;42.00
59975;DHT22;62136;-35.664;-63.766;2023-08-17T03:55:36;22.90;41.70
59975;DHT22;62136;-35.664;-63.766;2023-08-17T03:58:03;23.30;41.20
59975;DHT22;62136;-35.664;-63.766;2023-08-17T04:00:30;23.50;40.60
59975;DHT22;62136;-35.664;-63.766;2023-08-17T04:02:57;23.60;40.60
59975;DHT22;62136;-35.664;-63.766;2023-08-17T04:05:24;23.50;40.60
59975;DHT22;62136;-35.664;-63.766;2023-08-17T04:07:51;23.40;40.70
59975;DHT22;62136;-35.664;-63.766;2023-08-17T04:10:18;23.20;40.90
59975;DHT22;62136;-35.664;-63.766;2023-08-17T04:12:45;23.10;41.20
59975;DHT22;62136;-35.664;-63.766;2023-08-17T04:15:12;22.90;41.60
59975;DHT22;62136;-35.664;-63.766;2023-08-17T04:17:39;22.80;41.70
59975;DHT22;62136;-35.664;-63.766;2023-08-17T04:20:07;22.60;41.90
59975;DHT22;62136;-35.664;-63.766;2023-08-17T04:22:34;22.50;42.20
59975;DHT22;62136;-35.664;-63.766;2023-08-17T04:25:01;22.50;42.50
59975;DHT22;62136;-35.664;-63.766;2023-08-17T04:27:28;22.70;42.30
59975;DHT22;62136;-35.664;-63.766;2023-08-17T04:29:55;23.00;41.90
59975;DHT22;62136;-35.664;-63.766;2023-08-17T04:32:22;23.40;41.30
59975;DHT22;62136;-35.664;-63.766;2023-08-17T04:34:49;23.50;41.00
59975;DHT22;62136;-35.664;-63.766;2023-08-17T04:37:16;23.40;40.90
59975;DHT22;62136;-35.664;-63.766;2023-08-17T04:39:43;23.40;41.10
59975;DHT22;62136;-35.664;-63.766;2023-08-17T04:42:11;23.30;41.30
59975;DHT22;62136;-35.664;-63.766;2023-08-17T04:44:42;23.10;41.50
59975;DHT22;62136;-35.664;-63.766;2023-08-17T04:47:10;22.90;41.70
59975;DHT22;62136;-35.664;-63.766;2023-08-17T04:49:39;22.70;42.00
59975;DHT22;62136;-35.664;-63.766;2023-08-17T04:52:07;22.60;42.30
59975;DHT22;62136;-35.664;-63.766;2023-08-17T04:54:34;22.50;42.60
59975;DHT22;62136;-35.664;-63.766;2023-08-17T04:57:01;22.40;42.80
59975;DHT22;62136;-35.664;-63.766;2023-08-17T04:59:31;22.50;42.80
59975;DHT22;62136;-35.664;-63.766;2023-08-17T05:01:58;22.80;42.40
59975;DHT22;62136;-35.664;-63.766;2023-08-17T05:04:25;23.20;41.80
59975;DHT22;62136;-35.664;-63.766;2023-08-17T05:06:52;23.50;41.30
59975;DHT22;62136;-35.664;-63.766;2023-08-17T05:09:19;23.40;41.20
59975;DHT22;62136;-35.664;-63.766;2023-08-17T05:11:49;23.40;41.30
59975;DHT22;62136;-35.664;-63.766;2023-08-17T05:14:17;23.30;41.50
59975;DHT22;62136;-35.664;-63.766;2023-08-17T05:16:44;23.10;41.70
59975;DHT22;62136;-35.664;-63.766;2023-08-17T05:19:11;22.90;41.90
59975;DHT22;62136;-35.664;-63.766;2023-08-17T05:21:38;22.80;42.20
59975;DHT22;62136;-35.664;-63.766;2023-08-17T05:24:11;22.60;42.50
59975;DHT22;62136;-35.664;-63.766;2023-08-17T05:26:38;22.50;42.70
59975;DHT22;62136;-35.664;-63.766;2023-08-17T05:29:05;22.30;43.00
59975;DHT22;62136;-35.664;-63.766;2023-08-17T05:31:32;22.40;43.00
59975;DHT22;62136;-35.664;-63.766;2023-08-17T05:33:59;22.70;42.80
59975;DHT22;62136;-35.664;-63.766;2023-08-17T05:36:26;23.00;42.30
59975;DHT22;62136;-35.664;-63.766;2023-08-17T05:38:53;23.40;41.60
59975;DHT22;62136;-35.664;-63.766;2023-08-17T05:41:20;23.50;41.40
59975;DHT22;62136;-35.664;-63.766;2023-08-17T05:43:48;23.40;41.30
59975;DHT22;62136;-35.664;-63.766;2023-08-17T05:46:16;23.30;41.50
59975;DHT22;62136;-35.664;-63.766;2023-08-17T05:48:43;23.20;41.70
59975;DHT22;62136;-35.664;-63.766;2023-08-17T05:51:10;23.00;42.00
59975;DHT22;62136;-35.664;-63.766;2023-08-17T05:53:37;22.80;42.20
59975;DHT22;62136;-35.664;-63.766;2023-08-17T05:56:04;22.70;42.50
59975;DHT22;62136;-35.664;-63.766;2023-08-17T05:58:31;22.60;42.80
59975;DHT22;62136;-35.664;-63.766;2023-08-17T06:01:05;22.40;43.00
59975;DHT22;62136;-35.664;-63.766;2023-08-17T06:03:37;22.30;43.30
59975;DHT22;62136;-35.664;-63.766;2023-08-17T06:06:04;22.50;43.10
59975;DHT22;62136;-35.664;-63.766;2023-08-17T06:08:34;22.80;42.80
59975;DHT22;62136;-35.664;-63.766;2023-08-17T06:11:01;23.20;42.20
59975;DHT22;62136;-35.664;-63.766;2023-08-17T06:13:29;23.40;41.70
59975;DHT22;62136;-35.664;-63.766;2023-08-17T06:15:59;23.40;41.60
59975;DHT22;62136;-35.664;-63.766;2023-08-17T06:18:26;23.30;41.60
59975;DHT22;62136;-35.664;-63.766;2023-08-17T06:20:53;23.20;41.80
59975;DHT22;62136;-35.664;-63.766;2023-08-17T06:23:20;23.00;42.10
59975;DHT22;62136;-35.664;-63.766;2023-08-17T06:25:47;22.80;42.30
59975;DHT22;62136;-35.664;-63.766;2023-08-17T06:28:14;22.70;42.60
59975;DHT22;62136;-35.664;-63.766;2023-08-17T06:30:42;22.50;42.90
59975;DHT22;62136;-35.664;-63.766;2023-08-17T06:33:09;22.40;43.10
59975;DHT22;62136;-35.664;-63.766;2023-08-17T06:35:36;22.30;43.40
59975;DHT22;62136;-35.664;-63.766;2023-08-17T06:38:03;22.40;43.40
59975;DHT22;62136;-35.664;-63.766;2023-08-17T06:40:31;22.60;43.00
59975;DHT22;62136;-35.664;-63.766;2023-08-17T06:42:58;23.00;42.50
59975;DHT22;62136;-35.664;-63.766;2023-08-17T06:45:25;23.30;41.80
59975;DHT22;62136;-35.664;-63.766;2023-08-17T06:47:52;23.40;41.70
59975;DHT22;62136;-35.664;-63.766;2023-08-17T06:50:19;23.30;41.70
59975;DHT22;62136;-35.664;-63.766;2023-08-17T06:52:46;23.20;41.80
59975;DHT22;62136;-35.664;-63.766;2023-08-17T06:55:13;23.00;42.10
59975;DHT22;62136;-35.664;-63.766;2023-08-17T06:57:42;22.90;42.40
59975;DHT22;62136;-35.664;-63.766;2023-08-17T07:00:09;22.70;42.60
59975;DHT22;62136;-35.664;-63.766;2023-08-17T07:02:37;22.50;42.90
59975;DHT22;62136;-35.664;-63.766;2023-08-17T07:05:04;22.30;43.20
59975;DHT22;62136;-35.664;-63.766;2023-08-17T07:07:31;22.20;43.40
59975;DHT22;62136;-35.664;-63.766;2023-08-17T07:09:58;22.20;43.60
59975;DHT22;62136;-35.664;-63.766;2023-08-17T07:12:26;22.30;43.40
59975;DHT22;62136;-35.664;-63.766;2023-08-17T07:14:54;22.60;43.00
59975;DHT22;62136;-35.664;-63.766;2023-08-17T07:17:21;23.10;42.30
59975;DHT22;62136;-35.664;-63.766;2023-08-17T07:19:48;23.30;41.90
59975;DHT22;62136;-35.664;-63.766;2023-08-17T07:22:15;23.30;41.80
59975;DHT22;62136;-35.664;-63.766;2023-08-17T07:24:45;23.20;41.80
59975;DHT22;62136;-35.664;-63.766;2023-08-17T07:27:12;23.10;42.00
59975;DHT22;62136;-35.664;-63.766;2023-08-17T07:29:39;22.90;42.30
59975;DHT22;62136;-35.664;-63.766;2023-08-17T07:32:06;22.70;42.50
59975;DHT22;62136;-35.664;-63.766;2023-08-17T07:34:33;22.60;42.80
59975;DHT22;62136;-35.664;-63.766;2023-08-17T07:37:00;22.40;43.10
59975;DHT22;62136;-35.664;-63.766;2023-08-17T07:39:27;22.30;43.30
59975;DHT22;62136;-35.664;-63.766;2023-08-17T07:41:54;22.20;43.60
59975;DHT22;62136;-35.664;-63.766;2023-08-17T07:44:21;22.30;43.60
59975;DHT22;62136;-35.664;-63.766;2023-08-17T07:46:48;22.60;43.10
59975;DHT22;62136;-35.664;-63.766;2023-08-17T07:49:15;23.00;42.60
59975;DHT22;62136;-35.664;-63.766;2023-08-17T07:51:42;23.30;41.90
59975;DHT22;62136;-35.664;-63.766;2023-08-17T07:54:09;23.30;41.70
59975;DHT22;62136;-35.664;-63.766;2023-08-17T07:56:36;23.30;42.10
59975;DHT22;62136;-35.664;-63.766;2023-08-17T07:59:03;23.10;42.00
59975;DHT22;62136;-35.664;-63.766;2023-08-17T08:01:30;23.00;42.20
59975;DHT22;62136;-35.664;-63.766;2023-08-17T08:03:57;22.80;42.50
59975;DHT22;62136;-35.664;-63.766;2023-08-17T08:06:24;22.60;42.80
59975;DHT22;62136;-35.664;-63.766;2023-08-17T08:08:51;22.40;42.90
59975;DHT22;62136;-35.664;-63.766;2023-08-17T08:11:18;22.30;43.20
59975;DHT22;62136;-35.664;-63.766;2023-08-17T08:13:48;22.10;43.50
59975;DHT22;62136;-35.664;-63.766;2023-08-17T08:16:15;22.20;43.70
59975;DHT22;62136;-35.664;-63.766;2023-08-17T08:18:42;22.50;43.40
59975;DHT22;62136;-35.664;-63.766;2023-08-17T08:21:08;22.70;42.90
59975;DHT22;62136;-35.664;-63.766;2023-08-17T08:23:36;23.10;42.30
59975;DHT22;62136;-35.664;-63.766;2023-08-17T08:26:03;23.20;42.00
59975;DHT22;62136;-35.664;-63.766;2023-08-17T08:28:30;23.20;41.90
59975;DHT22;62136;-35.664;-63.766;2023-08-17T08:33:24;22.90;42.30
59975;DHT22;62136;-35.664;-63.766;2023-08-17T08:35:51;22.80;42.60
59975;DHT22;62136;-35.664;-63.766;2023-08-17T08:38:19;22.60;42.80
59975;DHT22;62136;-35.664;-63.766;2023-08-17T08:40:47;22.40;43.10
59975;DHT22;62136;-35.664;-63.766;2023-08-17T08:43:15;22.30;43.40
59975;DHT22;62136;-35.664;-63.766;2023-08-17T08:45:42;22.10;43.70
59975;DHT22;62136;-35.664;-63.766;2023-08-17T08:48:14;22.10;43.90
59975;DHT22;62136;-35.664;-63.766;2023-08-17T08:50:43;22.30;43.70
59975;DHT22;62136;-35.664;-63.766;2023-08-17T08:53:17;22.70;43.10
59975;DHT22;62136;-35.664;-63.766;2023-08-17T08:55:54;23.10;42.40
59975;DHT22;62136;-35.664;-63.766;2023-08-17T08:58:21;23.20;42.20
59975;DHT22;62136;-35.664;-63.766;2023-08-17T09:00:49;23.10;42.10
59975;DHT22;62136;-35.664;-63.766;2023-08-17T09:03:16;23.00;42.20
59975;DHT22;62136;-35.664;-63.766;2023-08-17T09:05:50;22.90;42.50
59975;DHT22;62136;-35.664;-63.766;2023-08-17T09:08:25;22.70;43.00
59975;DHT22;62136;-35.664;-63.766;2023-08-17T09:10:53;22.50;43.10
59975;DHT22;62136;-35.664;-63.766;2023-08-17T09:13:20;22.40;43.40
59975;DHT22;62136;-35.664;-63.766;2023-08-17T09:15:47;22.20;43.70
59975;DHT22;62136;-35.664;-63.766;2023-08-17T09:18:16;22.00;44.00
59975;DHT22;62136;-35.664;-63.766;2023-08-17T09:20:45;22.10;44.10
59975;DHT22;62136;-35.664;-63.766;2023-08-17T09:23:19;22.30;43.80
59975;DHT22;62136;-35.664;-63.766;2023-08-17T09:25:48;22.70;43.20
59975;DHT22;62136;-35.664;-63.766;2023-08-17T09:28:17;23.00;42.60
59975;DHT22;62136;-35.664;-63.766;2023-08-17T09:30:56;23.00;42.30
59975;DHT22;62136;-35.664;-63.766;2023-08-17T09:33:24;23.00;42.50
59975;DHT22;62136;-35.664;-63.766;2023-08-17T09:35:53;22.90;42.60
59975;DHT22;62136;-35.664;-63.766;2023-08-17T09:38:20;22.70;42.80
59975;DHT22;62136;-35.664;-63.766;2023-08-17T09:40:48;22.60;43.20
59975;DHT22;62136;-35.664;-63.766;2023-08-17T09:43:16;22.40;43.40
59975;DHT22;62136;-35.664;-63.766;2023-08-17T09:45:46;22.20;43.60
59975;DHT22;62136;-35.664;-63.766;2023-08-17T09:48:16;22.00;43.90
59975;DHT22;62136;-35.664;-63.766;2023-08-17T09:50:48;22.10;44.20
59975;DHT22;62136;-35.664;-63.766;2023-08-17T09:53:17;22.20;44.00
59975;DHT22;62136;-35.664;-63.766;2023-08-17T09:55:47;22.50;43.50
59975;DHT22;62136;-35.664;-63.766;2023-08-17T09:58:14;22.90;42.90
59975;DHT22;62136;-35.664;-63.766;2023-08-17T10:00:47;23.10;42.60
59975;DHT22;62136;-35.664;-63.766;2023-08-17T10:03:16;23.10;42.50
59975;DHT22;62136;-35.664;-63.766;2023-08-17T10:05:48;23.00;42.60
59975;DHT22;62136;-35.664;-63.766;2023-08-17T10:08:20;22.80;42.80
59975;DHT22;62136;-35.664;-63.766;2023-08-17T10:10:48;22.60;43.00
59975;DHT22;62136;-35.664;-63.766;2023-08-17T10:13:25;22.50;43.30
59975;DHT22;62136;-35.664;-63.766;2023-08-17T10:16:20;22.20;43.70
59975;DHT22;62136;-35.664;-63.766;2023-08-17T10:21:53;22.00;44.30
59975;DHT22;62136;-35.664;-63.766;2023-08-17T10:24:18;22.20;44.10
59975;DHT22;62136;-35.664;-63.766;2023-08-17T10:26:46;22.60;43.60
59975;DHT22;62136;-35.664;-63.766;2023-08-17T10:29:13;23.00;43.40
59975;DHT22;62136;-35.664;-63.766;2023-08-17T10:34:09;23.10;42.40
59975;DHT22;62136;-35.664;-63.766;2023-08-17T10:36:37;23.00;42.50
59975;DHT22;62136;-35.664;-63.766;2023-08-17T10:39:28;22.90;42.80
59975;DHT22;62136;-35.664;-63.766;2023-08-17T10:41:56;22.70;43.10
59975;DHT22;62136;-35.664;-63.766;2023-08-17T10:44:47;22.50;43.40
59975;DHT22;62136;-35.664;-63.766;2023-08-17T10:47:31;22.30;43.70
59975;DHT22;62136;-35.664;-63.766;2023-08-17T10:50:06;22.10;44.50
59975;DHT22;62136;-35.664;-63.766;2023-08-17T10:52:35;22.00;44.30
59975;DHT22;62136;-35.664;-63.766;2023-08-17T10:55:08;22.00;44.50
59975;DHT22;62136;-35.664;-63.766;2023-08-17T10:57:41;22.40;44.10
59975;DHT22;62136;-35.664;-63.766;2023-08-17T11:00:27;22.70;43.50
59975;DHT22;62136;-35.664;-63.766;2023-08-17T11:11:09;22.90;42.80
59975;DHT22;62136;-35.664;-63.766;2023-08-17T11:13:41;22.70;43.10
59975;DHT22;62136;-35.664;-63.766;2023-08-17T11:16:10;22.50;43.50
59975;DHT22;62136;-35.664;-63.766;2023-08-17T11:18:38;22.30;43.80
59975;DHT22;62136;-35.664;-63.766;2023-08-17T11:21:06;22.20;44.10
59975;DHT22;62136;-35.664;-63.766;2023-08-17T11:23:35;22.00;44.40
59975;DHT22;62136;-35.664;-63.766;2023-08-17T11:26:03;21.90;45.00
59975;DHT22;62136;-35.664;-63.766;2023-08-17T11:28:31;22.10;45.10
59975;DHT22;62136;-35.664;-63.766;2023-08-17T11:31:09;22.40;44.70
59975;DHT22;62136;-35.664;-63.766;2023-08-17T11:33:43;22.80;44.10
59975;DHT22;62136;-35.664;-63.766;2023-08-17T11:36:11;23.00;43.70
59975;DHT22;62136;-35.664;-63.766;2023-08-17T11:38:42;23.00;43.70
59975;DHT22;62136;-35.664;-63.766;2023-08-17T11:41:11;22.90;43.80
59975;DHT22;62136;-35.664;-63.766;2023-08-17T11:43:40;22.80;45.80
59975;DHT22;62136;-35.664;-63.766;2023-08-17T11:46:07;22.60;46.50
59975;DHT22;62136;-35.664;-63.766;2023-08-17T11:48:34;22.50;47.60
59975;DHT22;62136;-35.664;-63.766;2023-08-17T11:51:02;22.30;48.30
59975;DHT22;62136;-35.664;-63.766;2023-08-17T11:53:37;22.10;49.00
59975;DHT22;62136;-35.664;-63.766;2023-08-17T11:56:10;22.00;50.30
59975;DHT22;62136;-35.664;-63.766;2023-08-17T11:58:54;21.90;49.10
59975;DHT22;62136;-35.664;-63.766;2023-08-17T12:01:24;22.10;49.00
59975;DHT22;62136;-35.664;-63.766;2023-08-17T12:03:51;22.40;48.40
59975;DHT22;62136;-35.664;-63.766;2023-08-17T12:06:18;22.90;47.50
59975;DHT22;62136;-35.664;-63.766;2023-08-17T12:08:46;23.00;47.20
59975;DHT22;62136;-35.664;-63.766;2023-08-17T12:11:16;23.00;47.10
59975;DHT22;62136;-35.664;-63.766;2023-08-17T12:13:53;22.90;49.10
59975;DHT22;62136;-35.664;-63.766;2023-08-17T12:16:23;22.80;50.30
59975;DHT22;62136;-35.664;-63.766;2023-08-17T12:18:53;22.60;51.10
59975;DHT22;62136;-35.664;-63.766;2023-08-17T12:21:21;22.40;52.00
59975;DHT22;62136;-35.664;-63.766;2023-08-17T12:23:48;22.30;52.80
59975;DHT22;62136;-35.664;-63.766;2023-08-17T12:26:19;22.10;54.00
59975;DHT22;62136;-35.664;-63.766;2023-08-17T12:28:50;22.00;56.30
59975;DHT22;62136;-35.664;-63.766;2023-08-17T12:31:22;21.90;55.20
59975;DHT22;62136;-35.664;-63.766;2023-08-17T12:33:51;22.10;54.40
59975;DHT22;62136;-35.664;-63.766;2023-08-17T12:36:18;22.30;53.50
59975;DHT22;62136;-35.664;-63.766;2023-08-17T12:38:46;22.80;52.70
59975;DHT22;62136;-35.664;-63.766;2023-08-17T12:41:14;22.90;51.80
59975;DHT22;62136;-35.664;-63.766;2023-08-17T12:43:41;22.90;53.70
59975;DHT22;62136;-35.664;-63.766;2023-08-17T12:46:08;22.90;54.00
59975;DHT22;62136;-35.664;-63.766;2023-08-17T12:48:37;22.80;54.40
59975;DHT22;62136;-35.664;-63.766;2023-08-17T12:51:04;22.60;54.50
59975;DHT22;62136;-35.664;-63.766;2023-08-17T12:53:32;22.50;55.20
59975;DHT22;62136;-35.664;-63.766;2023-08-17T12:56:01;22.30;56.10
59975;DHT22;62136;-35.664;-63.766;2023-08-17T12:58:28;22.10;57.00
59975;DHT22;62136;-35.664;-63.766;2023-08-17T13:00:55;22.00;57.30
59975;DHT22;62136;-35.664;-63.766;2023-08-17T13:03:24;22.10;55.90
59975;DHT22;62136;-35.664;-63.766;2023-08-17T13:05:51;22.40;55.30
59975;DHT22;62136;-35.664;-63.766;2023-08-17T13:08:18;22.80;54.20
59975;DHT22;62136;-35.664;-63.766;2023-08-17T13:10:45;23.00;53.30
59975;DHT22;62136;-35.664;-63.766;2023-08-17T13:13:12;23.00;53.10
59975;DHT22;62136;-35.664;-63.766;2023-08-17T13:15:39;23.00;53.30
59975;DHT22;62136;-35.664;-63.766;2023-08-17T13:18:08;22.80;53.40
59975;DHT22;62136;-35.664;-63.766;2023-08-17T13:20:35;22.70;53.80
59975;DHT22;62136;-35.664;-63.766;2023-08-17T13:23:04;22.50;54.30
59975;DHT22;62136;-35.664;-63.766;2023-08-17T13:25:34;22.30;54.70
59975;DHT22;62136;-35.664;-63.766;2023-08-17T13:28:01;22.10;55.10
59975;DHT22;62136;-35.664;-63.766;2023-08-17T13:30:28;22.00;55.50
59975;DHT22;62136;-35.664;-63.766;2023-08-17T13:32:56;21.90;55.90
59975;DHT22;62136;-35.664;-63.766;2023-08-17T13:35:23;21.80;55.60
59975;DHT22;62136;-35.664;-63.766;2023-08-17T13:37:54;22.00;55.10
59975;DHT22;62136;-35.664;-63.766;2023-08-17T13:40:21;22.30;54.30
59975;DHT22;62136;-35.664;-63.766;2023-08-17T13:42:48;22.70;53.30
59975;DHT22;62136;-35.664;-63.766;2023-08-17T13:45:17;22.90;52.40
59975;DHT22;62136;-35.664;-63.766;2023-08-17T13:47:45;23.00;52.30
59975;DHT22;62136;-35.664;-63.766;2023-08-17T13:50:23;22.90;52.40
59975;DHT22;62136;-35.664;-63.766;2023-08-17T13:52:53;22.80;52.70
59975;DHT22;62136;-35.664;-63.766;2023-08-17T13:55:22;22.60;53.00
59975;DHT22;62136;-35.664;-63.766;2023-08-17T13:57:49;22.40;53.70
59975;DHT22;62136;-35.664;-63.766;2023-08-17T14:00:24;22.20;54.40
59975;DHT22;62136;-35.664;-63.766;2023-08-17T14:02:53;22.10;54.80
59975;DHT22;62136;-35.664;-63.766;2023-08-17T14:05:20;21.90;55.10
59975;DHT22;62136;-35.664;-63.766;2023-08-17T14:07:48;21.80;55.00
59975;DHT22;62136;-35.664;-63.766;2023-08-17T14:10:15;21.80;54.80
59975;DHT22;62136;-35.664;-63.766;2023-08-17T14:12:42;22.10;54.00
59975;DHT22;62136;-35.664;-63.766;2023-08-17T14:15:13;22.50;53.20
59975;DHT22;62136;-35.664;-63.766;2023-08-17T14:17:40;22.90;52.00
59975;DHT22;62136;-35.664;-63.766;2023-08-17T14:20:07;22.90;51.90
59975;DHT22;62136;-35.664;-63.766;2023-08-17T14:22:35;22.90;52.00
59975;DHT22;62136;-35.664;-63.766;2023-08-17T14:25:02;22.70;52.40
59975;DHT22;62136;-35.664;-63.766;2023-08-17T14:27:29;22.60;52.80
59975;DHT22;62136;-35.664;-63.766;2023-08-17T14:29:57;22.50;53.60
59975;DHT22;62136;-35.664;-63.766;2023-08-17T14:32:28;22.30;54.50
59975;DHT22;62136;-35.664;-63.766;2023-08-17T14:34:55;22.20;55.10
59975;DHT22;62136;-35.664;-63.766;2023-08-17T14:37:23;22.00;55.40
59975;DHT22;62136;-35.664;-63.766;2023-08-17T14:39:50;21.90;55.80
59975;DHT22;62136;-35.664;-63.766;2023-08-17T14:42:17;21.70;55.80
59975;DHT22;62136;-35.664;-63.766;2023-08-17T14:44:46;21.70;55.20
59975;DHT22;62136;-35.664;-63.766;2023-08-17T14:47:14;22.00;54.70
59975;DHT22;62136;-35.664;-63.766;2023-08-17T14:49:44;22.40;53.70
59975;DHT22;62136;-35.664;-63.766;2023-08-17T14:52:11;22.80;52.70
59975;DHT22;62136;-35.664;-63.766;2023-08-17T14:54:39;22.90;52.30
59975;DHT22;62136;-35.664;-63.766;2023-08-17T14:57:07;22.90;52.40
59975;DHT22;62136;-35.664;-63.766;2023-08-17T14:59:34;22.80;52.50
59975;DHT22;62136;-35.664;-63.766;2023-08-17T15:02:02;22.70;53.10
59975;DHT22;62136;-35.664;-63.766;2023-08-17T15:04:30;22.60;53.40
59975;DHT22;62136;-35.664;-63.766;2023-08-17T15:06:57;22.40;54.10
59975;DHT22;62136;-35.664;-63.766;2023-08-17T15:09:24;22.30;55.10
59975;DHT22;62136;-35.664;-63.766;2023-08-17T15:11:55;22.20;55.70
59975;DHT22;62136;-35.664;-63.766;2023-08-17T15:14:22;22.00;56.30
59975;DHT22;62136;-35.664;-63.766;2023-08-17T15:16:49;21.90;56.90